createdAt,value
2019-05-03T00:02:12.181Z,5.40
2019-05-03T00:04:42.294Z,5.25
2019-05-03T00:07:11.834Z,4.03
2019-05-03T00:09:42.522Z,6.55
2019-05-03T00:12:12.636Z,5.08
2019-05-03T00:14:43.159Z,5.03
2019-05-03T00:17:11.947Z,4.92
2019-05-03T00:19:42.217Z,5.50
2019-05-03T00:22:12.356Z,8.05
2019-05-03T00:24:42.713Z,9.30
2019-05-03T00:27:12.551Z,9.75
2019-05-03T00:29:41.825Z,7.42
2019-05-03T00:32:12.506Z,8.28
2019-05-03T00:34:46.564Z,8.03
2019-05-03T00:37:17.053Z,7.85
2019-05-03T00:40:04.993Z,6.60
2019-05-03T00:42:33.760Z,7.03
2019-05-03T00:45:02.580Z,8.95
2019-05-03T00:47:32.864Z,6.50
2019-05-03T00:50:02.789Z,7.70
2019-05-03T00:52:31.988Z,6.40
2019-05-03T00:55:02.195Z,6.17
2019-05-03T00:57:32.242Z,6.17
2019-05-03T01:00:02.150Z,6.70
2019-05-03T01:02:31.846Z,6.95
2019-05-03T01:05:02.882Z,6.97
2019-05-03T01:07:31.819Z,7.33
2019-05-03T01:10:04.337Z,6.05
2019-05-03T01:12:32.842Z,4.67
2019-05-03T01:15:03.234Z,4.20
2019-05-03T01:17:32.610Z,8.85
2019-05-03T01:20:02.783Z,5.12
2019-05-03T01:22:32.196Z,4.30
2019-05-03T01:25:02.902Z,6.40
2019-05-03T01:27:32.637Z,3.27
2019-05-03T01:30:02.923Z,6.85
2019-05-03T01:32:32.899Z,6.20
2019-05-03T01:35:03.220Z,5.75
2019-05-03T01:37:32.464Z,4.55
2019-05-03T01:40:02.373Z,3.25
2019-05-03T01:42:32.070Z,4.15
2019-05-03T01:45:01.794Z,6.83
2019-05-03T01:47:41.937Z,2.47
2019-05-03T01:50:24.558Z,2.45
2019-05-03T01:52:54.916Z,3.65
2019-05-03T01:55:25.343Z,4.30
2019-05-03T01:57:54.181Z,4.55
2019-05-03T02:00:24.541Z,1.72
2019-05-03T02:03:03.825Z,3.37
2019-05-03T02:05:46.178Z,2.45
2019-05-03T02:08:16.970Z,2.22
2019-05-03T02:10:45.680Z,2.50
2019-05-03T02:13:14.412Z,2.52
2019-05-03T02:15:43.128Z,4.03
2019-05-03T02:18:14.903Z,8.38
2019-05-03T02:20:44.639Z,2.45
2019-05-03T02:23:13.338Z,2.90
2019-05-03T02:25:42.083Z,2.00
2019-05-03T02:28:12.474Z,3.33
2019-05-03T02:30:44.205Z,2.83
2019-05-03T02:33:13.532Z,2.70
2019-05-03T02:35:43.020Z,2.12
2019-05-03T02:38:13.061Z,2.37
2019-05-03T02:40:42.991Z,2.30
2019-05-03T02:43:25.604Z,3.35
2019-05-03T02:46:00.834Z,3.83
2019-05-03T02:48:37.217Z,3.10
2019-05-03T02:51:06.596Z,1.82
2019-05-03T02:53:35.997Z,1.77
2019-05-03T02:56:17.234Z,2.95
2019-05-03T02:58:35.899Z,5.00
2019-05-03T03:01:06.723Z,2.15
2019-05-03T03:03:36.507Z,4.60
2019-05-03T03:06:06.921Z,9.63
2019-05-03T03:08:37.776Z,5.83
2019-05-03T03:11:08.372Z,4.58
2019-05-03T03:13:40.869Z,1.85
2019-05-03T03:16:10.583Z,5.47
2019-05-03T03:18:40.902Z,5.60
2019-05-03T03:21:16.325Z,5.22
2019-05-03T03:23:57.373Z,4.28
2019-05-03T03:26:37.095Z,2.10
2019-05-03T03:29:01.846Z,4.10
2019-05-03T03:34:07.516Z,2.90
2019-05-03T03:36:54.568Z,5.15
2019-05-03T03:39:08.105Z,9.68
2019-05-03T03:41:36.933Z,13.22
2019-05-03T03:44:07.300Z,18.77
2019-05-03T03:46:36.663Z,5.60
2019-05-03T03:49:07.116Z,6.83
2019-05-03T03:51:37.974Z,3.55
2019-05-03T03:54:06.873Z,4.62
2019-05-03T03:56:53.770Z,3.98
2019-05-03T03:59:09.730Z,4.70
2019-05-03T04:01:38.504Z,3.37
2019-05-03T04:04:07.291Z,3.72
2019-05-03T04:06:42.125Z,3.50
2019-05-03T04:09:11.048Z,9.20
2019-05-03T04:11:40.181Z,2.33
2019-05-03T04:14:20.126Z,5.83
2019-05-03T04:16:50.681Z,4.95
2019-05-03T04:19:21.138Z,6.60
2019-05-03T04:21:52.799Z,6.83
2019-05-03T04:24:21.541Z,6.65
2019-05-03T04:26:51.889Z,4.30
2019-05-03T04:29:22.082Z,2.92
2019-05-03T04:31:52.039Z,2.72
2019-05-03T04:34:20.723Z,3.98
2019-05-03T04:36:49.521Z,7.95
2019-05-03T04:39:20.276Z,8.83
2019-05-03T04:41:48.641Z,4.62
2019-05-03T04:44:17.352Z,3.90
2019-05-03T04:46:46.589Z,16.30
2019-05-03T04:49:15.417Z,5.08
2019-05-03T04:51:46.465Z,7.55
2019-05-03T04:54:25.616Z,3.33
2019-05-03T04:56:56.243Z,3.58
2019-05-03T04:59:25.575Z,6.67
2019-05-03T05:01:56.006Z,4.20
2019-05-03T05:04:25.408Z,10.50
2019-05-03T05:06:55.483Z,6.45
2019-05-03T05:09:25.871Z,3.00
2019-05-03T05:11:55.364Z,4.83
2019-05-03T05:14:25.869Z,7.10
2019-05-03T05:16:56.912Z,26.68
2019-05-03T05:19:33.058Z,7.50
2019-05-03T05:22:05.889Z,7.37
2019-05-03T05:24:34.624Z,9.43
2019-05-03T05:27:21.411Z,10.40
2019-05-03T05:29:52.511Z,3.08
2019-05-03T05:32:21.291Z,3.95
2019-05-03T05:34:49.972Z,8.05
2019-05-03T05:37:18.692Z,5.17
2019-05-03T05:39:47.485Z,10.48
2019-05-03T05:42:18.528Z,4.25
2019-05-03T05:44:47.235Z,3.92
2019-05-03T05:47:29.672Z,5.10
2019-05-03T05:50:04.961Z,4.62
2019-05-03T05:52:34.611Z,94.28
2019-05-03T05:55:25.312Z,5.25
2019-05-03T05:58:04.684Z,2.87
2019-05-03T06:00:30.593Z,2.77
2019-05-03T06:02:59.316Z,2.15
2019-05-03T06:05:28.224Z,2.45
2019-05-03T06:08:15.144Z,3.98
2019-05-03T06:11:04.557Z,5.83
2019-05-03T06:13:51.506Z,3.27
2019-05-03T06:16:24.831Z,4.70
2019-05-03T06:18:55.193Z,7.90
2019-05-03T06:21:28.374Z,2.92
2019-05-03T06:23:58.737Z,4.90
2019-05-03T06:26:38.297Z,2.12
2019-05-03T06:29:07.835Z,3.90
2019-05-03T06:31:47.961Z,6.40
2019-05-03T06:34:16.786Z,6.65
2019-05-03T06:36:51.369Z,3.15
2019-05-03T06:39:20.386Z,4.10
2019-05-03T06:41:49.089Z,4.80
2019-05-03T06:44:19.238Z,2.87
2019-05-03T06:46:55.140Z,7.50
2019-05-03T06:49:25.444Z,3.42
2019-05-03T06:51:55.632Z,3.80
2019-05-03T06:54:26.955Z,3.17
2019-05-03T06:56:55.480Z,5.60
2019-05-03T06:59:31.758Z,8.73
2019-05-03T07:02:14.872Z,4.65
2019-05-03T07:04:45.403Z,4.97
2019-05-03T07:07:27.834Z,3.95
2019-05-03T07:12:51.167Z,4.00
2019-05-03T07:15:19.905Z,7.25
2019-05-03T07:17:48.696Z,2.60
2019-05-03T07:20:17.405Z,4.17
2019-05-03T07:22:46.160Z,1.82
2019-05-03T07:25:15.022Z,5.12
2019-05-03T07:27:45.225Z,4.40
2019-05-03T07:30:15.631Z,4.45
2019-05-03T07:32:48.328Z,4.35
2019-05-03T07:35:17.047Z,5.28
2019-05-03T07:37:45.866Z,2.80
2019-05-03T07:40:14.898Z,5.70
2019-05-03T07:42:44.969Z,8.60
2019-05-03T07:45:14.875Z,3.85
2019-05-03T07:47:45.202Z,7.70
2019-05-03T07:50:16.082Z,6.35
2019-05-03T07:52:45.177Z,4.15
2019-05-03T07:55:15.839Z,7.22
2019-05-03T07:57:49.113Z,10.18
2019-05-03T08:00:19.504Z,6.28
2019-05-03T08:02:48.200Z,3.55
2019-05-03T08:05:16.949Z,5.78
2019-05-03T08:07:46.271Z,4.42
2019-05-03T08:10:17.773Z,3.00
2019-05-03T08:12:46.516Z,2.87
2019-05-03T08:15:15.778Z,5.80
2019-05-03T08:17:46.177Z,6.28
2019-05-03T08:20:17.972Z,6.70
2019-05-03T08:26:07.840Z,2.60
2019-05-03T08:28:36.668Z,3.08
2019-05-03T08:31:09.978Z,4.25
2019-05-03T08:33:50.417Z,3.50
2019-05-03T08:36:19.138Z,2.65
2019-05-03T08:38:47.961Z,3.37
2019-05-03T08:41:27.337Z,5.92
2019-05-03T08:43:56.058Z,3.58
2019-05-03T08:46:25.468Z,2.85
2019-05-03T08:48:54.818Z,2.30
2019-05-03T08:51:25.043Z,4.28
2019-05-03T08:53:56.028Z,2.92
2019-05-03T08:56:24.687Z,4.00
2019-05-03T08:58:55.415Z,10.63
2019-05-03T09:01:25.104Z,8.45
2019-05-03T09:03:55.806Z,3.60
2019-05-03T09:06:24.886Z,2.95
2019-05-03T09:08:56.853Z,4.33
2019-05-03T09:11:31.795Z,2.05
2019-05-03T09:13:56.315Z,9.65
2019-05-03T09:16:25.242Z,3.10
2019-05-03T09:18:54.885Z,1.52
2019-05-03T09:21:25.498Z,22.22
2019-05-03T09:23:55.366Z,3.83
2019-05-03T09:26:28.927Z,4.70
2019-05-03T09:28:55.608Z,3.98
2019-05-03T09:31:24.993Z,5.08
2019-05-03T09:33:54.777Z,6.72
2019-05-03T09:36:25.322Z,4.10
2019-05-03T09:38:54.871Z,2.60
2019-05-03T09:41:25.570Z,2.10
2019-05-03T09:43:55.416Z,3.98
2019-05-03T09:46:26.501Z,3.95
2019-05-03T09:49:03.310Z,8.00
2019-05-03T09:51:25.719Z,3.83
2019-05-03T09:53:56.186Z,10.72
2019-05-03T09:56:53.565Z,3.15
2019-05-03T09:59:14.777Z,5.53
2019-05-03T10:01:45.600Z,6.17
2019-05-03T10:04:14.023Z,3.30
2019-05-03T10:06:42.767Z,6.87
2019-05-03T10:09:11.514Z,7.42
2019-05-03T10:11:40.229Z,5.37
2019-05-03T10:14:09.162Z,5.12
2019-05-03T10:16:39.510Z,3.12
2019-05-03T10:19:08.243Z,4.37
2019-05-03T10:21:38.592Z,5.30
2019-05-03T10:24:07.406Z,8.08
2019-05-03T10:26:36.175Z,15.60
2019-05-03T10:29:05.560Z,4.35
2019-05-03T10:31:35.924Z,5.65
2019-05-03T10:34:05.754Z,4.45
2019-05-03T10:36:35.632Z,2.37
2019-05-03T10:39:05.746Z,2.62
2019-05-03T10:41:34.830Z,3.80
2019-05-03T10:44:05.922Z,2.37
2019-05-03T10:46:35.341Z,2.85
2019-05-03T10:49:05.770Z,5.55
2019-05-03T10:51:36.369Z,7.45
2019-05-03T10:54:05.260Z,6.05
2019-05-03T10:56:35.925Z,7.42
2019-05-03T10:59:06.489Z,7.10
2019-05-03T11:01:49.010Z,4.87
2019-05-03T11:04:17.835Z,8.43
2019-05-03T11:06:46.624Z,4.25
2019-05-03T11:09:16.677Z,3.87
2019-05-03T11:11:45.652Z,4.92
2019-05-03T11:14:14.956Z,5.10
2019-05-03T11:16:45.767Z,6.55
2019-05-03T11:19:14.531Z,8.53
2019-05-03T11:21:45.340Z,3.75
2019-05-03T11:24:14.772Z,3.95
2019-05-03T11:26:45.581Z,3.08
2019-05-03T11:29:15.839Z,5.55
2019-05-03T11:32:09.427Z,5.58
2019-05-03T11:34:36.921Z,4.10
2019-05-03T11:37:16.942Z,6.42
2019-05-03T11:39:45.752Z,7.28
2019-05-03T11:42:16.227Z,4.12
2019-05-03T11:44:45.658Z,2.45
2019-05-03T11:47:14.999Z,5.95
2019-05-03T11:49:45.412Z,7.53
2019-05-03T11:52:15.816Z,7.30
2019-05-03T11:54:45.258Z,5.67
2019-05-03T11:57:27.963Z,6.03
2019-05-03T11:59:56.824Z,8.55
2019-05-03T12:02:29.887Z,7.75
2019-05-03T12:05:05.012Z,4.22
2019-05-03T12:07:39.932Z,7.08
2019-05-03T12:10:17.132Z,3.10
2019-05-03T12:12:47.417Z,2.47
2019-05-03T12:15:16.335Z,2.95
2019-05-03T12:17:54.510Z,3.22
2019-05-03T12:20:21.455Z,3.77
2019-05-03T12:22:50.761Z,2.22
2019-05-03T12:25:20.412Z,2.45
2019-05-03T12:27:49.730Z,4.40
2019-05-03T12:30:19.649Z,2.60
2019-05-03T12:32:48.456Z,3.47
2019-05-03T12:35:17.212Z,2.62
2019-05-03T12:37:45.929Z,3.02
2019-05-03T12:40:15.098Z,2.30
2019-05-03T12:42:45.489Z,3.62
2019-05-03T12:45:15.255Z,3.37
2019-05-03T12:47:45.307Z,4.83
2019-05-03T12:50:15.619Z,3.35
2019-05-03T12:52:50.316Z,2.70
2019-05-03T12:55:15.472Z,4.25
2019-05-03T12:57:45.780Z,3.55
2019-05-03T13:00:31.068Z,2.10
2019-05-03T13:03:04.583Z,3.30
2019-05-03T13:05:35.519Z,5.58
2019-05-03T13:08:25.208Z,3.55
2019-05-03T13:10:55.709Z,3.42
2019-05-03T13:13:25.007Z,2.77
2019-05-03T13:15:55.022Z,6.78
2019-05-03T13:18:25.231Z,2.12
2019-05-03T13:20:55.835Z,3.95
2019-05-03T13:23:25.336Z,3.75
2019-05-03T13:25:54.247Z,3.55
2019-05-03T13:28:22.948Z,6.83
2019-05-03T13:30:51.728Z,4.53
2019-05-03T13:33:20.530Z,4.80
2019-05-03T13:35:49.280Z,7.28
2019-05-03T13:38:17.995Z,3.58
2019-05-03T13:40:46.997Z,5.55
2019-05-03T13:43:15.754Z,4.50
2019-05-03T13:45:45.080Z,5.15
2019-05-03T13:48:20.996Z,4.72
2019-05-03T13:50:46.798Z,6.60
2019-05-03T13:53:16.179Z,4.22
2019-05-03T13:55:45.160Z,4.00
2019-05-03T13:58:14.751Z,2.47
2019-05-03T14:00:45.298Z,4.67
2019-05-03T14:03:15.287Z,2.67
2019-05-03T14:05:44.601Z,4.40
2019-05-03T14:08:15.696Z,7.05
2019-05-03T14:10:45.460Z,6.47
2019-05-03T14:13:14.340Z,6.60
2019-05-03T14:15:45.192Z,3.55
2019-05-03T14:18:15.290Z,4.05
2019-05-03T14:20:51.444Z,3.87
2019-05-03T14:23:20.168Z,6.10
2019-05-03T14:25:49.045Z,9.13
2019-05-03T14:28:17.765Z,3.83
2019-05-03T14:30:46.548Z,4.17
2019-05-03T14:33:15.265Z,3.00
2019-05-03T14:35:45.203Z,4.60
2019-05-03T14:38:15.147Z,3.72
2019-05-03T14:40:45.218Z,5.05
2019-05-03T14:43:15.419Z,2.85
2019-05-03T14:45:44.336Z,3.77
2019-05-03T14:48:15.097Z,4.67
2019-05-03T14:50:45.436Z,3.52
2019-05-03T14:53:14.775Z,7.87
2019-05-03T14:55:45.340Z,2.72
2019-05-03T14:58:25.884Z,5.28
2019-05-03T15:01:05.688Z,3.60
2019-05-03T15:03:35.102Z,5.10
2019-05-03T15:06:05.163Z,2.55
2019-05-03T15:08:35.005Z,3.72
2019-05-03T15:11:05.325Z,3.35
2019-05-03T15:13:35.010Z,5.20
2019-05-03T15:16:05.241Z,1.95
2019-05-03T15:18:34.881Z,3.47
2019-05-03T15:21:05.464Z,1.87
2019-05-03T15:23:34.690Z,2.70
2019-05-03T15:26:05.110Z,2.72
2019-05-03T15:28:35.571Z,3.10
2019-05-03T15:31:04.748Z,4.50
2019-05-03T15:33:35.181Z,3.15
2019-05-03T15:36:04.790Z,4.55
2019-05-03T15:38:34.649Z,3.30
2019-05-03T15:41:05.400Z,2.83
2019-05-03T15:43:45.404Z,2.33
2019-05-03T15:46:25.230Z,3.60
2019-05-03T15:48:55.833Z,4.10
2019-05-03T15:51:24.697Z,4.95
2019-05-03T15:53:55.118Z,6.20
2019-05-03T15:56:25.267Z,5.53
2019-05-03T15:58:55.228Z,7.22
2019-05-03T16:01:24.817Z,4.95
2019-05-03T16:03:55.464Z,4.95
2019-05-03T16:06:24.796Z,3.98
2019-05-03T16:08:55.255Z,5.75
2019-05-03T16:11:25.545Z,7.37
2019-05-03T16:13:55.393Z,5.62
2019-05-03T16:16:24.851Z,5.78
2019-05-03T16:18:54.213Z,11.28
2019-05-03T16:21:25.045Z,10.23
2019-05-03T16:23:55.368Z,5.97
2019-05-03T16:26:25.017Z,7.70
2019-05-03T16:28:55.545Z,4.95
2019-05-03T16:31:26.687Z,8.48
2019-05-03T16:33:55.533Z,7.67
2019-05-03T16:36:24.290Z,7.55
2019-05-03T16:38:55.270Z,6.42
2019-05-03T16:41:24.880Z,7.72
2019-05-03T16:43:53.690Z,11.25
2019-05-03T16:46:22.455Z,6.45
2019-05-03T16:48:51.178Z,11.30
2019-05-03T16:51:19.925Z,8.43
2019-05-03T16:53:48.624Z,12.43
2019-05-03T16:56:17.555Z,22.62
2019-05-03T16:58:46.415Z,16.42
2019-05-03T17:01:17.892Z,18.30
2019-05-03T17:03:47.133Z,8.43
2019-05-03T17:06:23.644Z,11.48
2019-05-03T17:08:54.243Z,14.25
2019-05-03T17:11:25.291Z,15.43
2019-05-03T17:13:55.060Z,13.13
2019-05-03T17:16:24.898Z,7.90
2019-05-03T17:18:55.164Z,40.90
2019-05-03T17:21:25.479Z,27.67
2019-05-03T17:23:54.249Z,34.10
2019-05-03T17:26:24.906Z,24.47
2019-05-03T17:28:55.218Z,12.88
2019-05-03T17:31:24.372Z,13.75
2019-05-03T17:33:56.502Z,6.42
2019-05-03T17:36:25.046Z,6.05
2019-05-03T17:38:55.637Z,5.97
2019-05-03T17:41:38.063Z,8.35
2019-05-03T17:44:17.186Z,9.50
2019-05-03T17:46:46.011Z,7.55
2019-05-03T17:49:14.815Z,9.68
2019-05-03T17:51:45.601Z,10.90
2019-05-03T17:54:27.653Z,5.47
2019-05-03T17:59:29.527Z,11.12
2019-05-03T18:02:16.584Z,14.83
2019-05-03T18:04:47.057Z,17.77
2019-05-03T18:07:24.291Z,16.35
2019-05-03T18:09:55.380Z,16.82
2019-05-03T18:12:24.415Z,14.00
2019-05-03T18:14:55.325Z,21.05
2019-05-03T18:17:24.756Z,15.80
2019-05-03T18:19:55.318Z,18.52
2019-05-03T18:22:24.433Z,17.67
2019-05-03T18:24:54.650Z,17.52
2019-05-03T18:27:25.083Z,21.17
2019-05-03T18:29:55.444Z,21.85
2019-05-03T18:32:25.139Z,27.20
2019-05-03T18:34:54.599Z,31.45
2019-05-03T18:37:24.508Z,30.00
2019-05-03T18:39:54.733Z,26.73
2019-05-03T18:42:31.187Z,24.65
2019-05-03T18:45:10.323Z,24.20
2019-05-03T18:47:39.122Z,20.52
2019-05-03T18:50:08.142Z,22.40
2019-05-03T18:52:38.928Z,19.75
2019-05-03T18:55:07.984Z,22.53
2019-05-03T18:57:36.928Z,28.65
2019-05-03T19:00:08.241Z,26.52
2019-05-03T19:02:37.053Z,28.60
2019-05-03T19:05:07.484Z,26.80
2019-05-03T19:07:40.775Z,25.15
2019-05-03T19:10:11.440Z,29.10
2019-05-03T19:12:47.824Z,34.33
2019-05-03T19:15:16.695Z,32.55
2019-05-03T19:17:50.078Z,35.90
2019-05-03T19:20:20.411Z,27.05
2019-05-03T19:22:49.207Z,34.55
2019-05-03T19:25:17.933Z,36.03
2019-05-03T19:27:46.656Z,43.68
2019-05-03T19:30:15.652Z,48.25
2019-05-03T19:32:45.042Z,58.02
2019-05-03T19:35:15.561Z,60.38
2019-05-03T19:37:46.531Z,59.58
2019-05-03T19:40:15.183Z,54.80
2019-05-03T19:42:44.722Z,59.25
2019-05-03T19:45:15.234Z,61.42
2019-05-03T19:47:44.746Z,66.37
2019-05-03T19:50:15.531Z,68.92
2019-05-03T19:53:02.130Z,66.45
2019-05-03T19:55:30.940Z,69.82
2019-05-03T19:57:59.720Z,74.97
2019-05-03T20:00:30.204Z,69.53
2019-05-03T20:03:09.353Z,68.50
2019-05-03T20:05:45.930Z,65.75
2019-05-03T20:08:16.314Z,67.78
2019-05-03T20:10:46.142Z,61.18
2019-05-03T20:13:15.244Z,67.27
2019-05-03T20:15:45.612Z,68.85
2019-05-03T20:18:18.007Z,67.70
2019-05-03T20:20:46.344Z,69.35
2019-05-03T20:23:15.065Z,68.87
2019-05-03T20:25:43.805Z,74.25
2019-05-03T20:28:12.541Z,69.95
2019-05-03T20:30:41.349Z,70.15
2019-05-03T20:33:10.176Z,58.60
2019-05-03T20:35:38.874Z,64.12
2019-05-03T20:38:07.588Z,65.78
2019-05-03T20:40:36.381Z,63.52
2019-05-03T20:43:20.156Z,56.23
2019-05-03T20:46:04.928Z,59.85
2019-05-03T20:48:34.363Z,62.60
2019-05-03T20:51:03.274Z,63.28
2019-05-03T20:53:34.367Z,62.58
2019-05-03T20:56:02.419Z,68.28
2019-05-03T20:58:32.475Z,59.45
2019-05-03T21:01:01.429Z,63.58
2019-05-03T21:03:30.144Z,51.70
2019-05-03T21:05:58.871Z,62.48
2019-05-03T21:08:27.622Z,67.05
2019-05-03T21:10:56.304Z,60.28
2019-05-03T21:13:33.150Z,67.40
2019-05-03T21:16:00.012Z,58.23
2019-05-03T21:18:30.385Z,50.80
2019-05-03T21:21:15.965Z,55.90
2019-05-03T21:23:48.784Z,52.05
2019-05-03T21:26:17.712Z,56.28
2019-05-03T21:28:46.612Z,51.00
2019-05-03T21:31:15.734Z,56.55
2019-05-03T21:33:44.636Z,65.52
2019-05-03T21:36:14.965Z,62.75
2019-05-03T21:38:44.456Z,51.70
2019-05-03T21:41:15.467Z,59.35
2019-05-03T21:43:45.127Z,58.63
2019-05-03T21:46:15.585Z,63.80
2019-05-03T21:48:48.681Z,60.55
2019-05-03T21:51:17.402Z,71.00
2019-05-03T21:53:46.182Z,66.60
2019-05-03T21:56:15.223Z,78.87
2019-05-03T21:58:44.684Z,81.55
2019-05-03T22:01:15.579Z,75.35
2019-05-03T22:03:44.880Z,60.28
2019-05-03T22:06:15.423Z,72.65
2019-05-03T22:08:45.493Z,70.70
2019-05-03T22:11:14.916Z,69.97
2019-05-03T22:13:45.542Z,67.95
2019-05-03T22:16:24.860Z,66.22
2019-05-03T22:18:54.608Z,67.37
2019-05-03T22:21:27.756Z,68.02
2019-05-03T22:23:58.153Z,65.25
2019-05-03T22:26:45.243Z,67.87
2019-05-03T22:29:16.958Z,61.15
2019-05-03T22:31:45.310Z,67.92
2019-05-03T22:34:15.121Z,72.42
2019-05-03T22:36:44.401Z,65.55
2019-05-03T22:39:15.642Z,67.05
2019-05-03T22:41:43.723Z,60.88
2019-05-03T22:44:16.739Z,70.32
2019-05-03T22:46:44.600Z,62.23
2019-05-03T22:49:15.455Z,69.80
2019-05-03T22:51:45.174Z,56.58
2019-05-03T22:54:15.350Z,69.53
2019-05-03T22:56:44.895Z,59.67
2019-05-03T22:59:14.713Z,59.05
2019-05-03T23:01:45.852Z,48.80
2019-05-03T23:04:14.692Z,61.08
2019-05-03T23:06:46.820Z,58.35
2019-05-03T23:09:15.852Z,59.93
2019-05-03T23:11:45.015Z,67.30
2019-05-03T23:14:15.136Z,62.85
2019-05-03T23:16:44.814Z,63.35
2019-05-03T23:19:14.919Z,62.53
2019-05-03T23:21:57.790Z,57.38
2019-05-03T23:24:26.502Z,59.88
2019-05-03T23:26:55.292Z,54.03
2019-05-03T23:29:24.020Z,49.95
2019-05-03T23:31:52.771Z,53.00
2019-05-03T23:34:21.474Z,53.17
2019-05-03T23:36:50.267Z,46.63
2019-05-03T23:39:19.004Z,45.78
2019-05-03T23:41:47.729Z,45.43
2019-05-03T23:44:16.468Z,42.33
2019-05-03T23:46:54.540Z,36.58
2019-05-03T23:49:25.024Z,32.25
2019-05-03T23:51:55.459Z,37.28
2019-05-03T23:54:24.733Z,36.28
2019-05-03T23:56:54.782Z,33.02
2019-05-03T23:59:23.753Z,28.92
